sensor_id;sensor_type;location;lat;lon;timestamp;P1;durP1;ratioP1;P2;durP2;ratioP2
57947;SDS011;43754;56.992;24.292;2022-12-29T00:01:54;36.22;;;20.60;;
57947;SDS011;43754;56.992;24.292;2022-12-29T00:04:26;31.15;;;20.45;;
57947;SDS011;43754;56.992;24.292;2022-12-29T00:07:00;32.05;;;20.52;;
57947;SDS011;43754;56.992;24.292;2022-12-29T00:09:32;29.17;;;19.02;;
57947;SDS011;43754;56.992;24.292;2022-12-29T00:12:05;41.10;;;23.83;;
57947;SDS011;43754;56.992;24.292;2022-12-29T00:14:37;31.90;;;20.23;;
57947;SDS011;43754;56.992;24.292;2022-12-29T00:17:28;32.85;;;22.25;;
57947;SDS011;43754;56.992;24.292;2022-12-29T00:20:00;39.90;;;23.73;;
57947;SDS011;43754;56.992;24.292;2022-12-29T00:22:51;48.72;;;29.00;;
57947;SDS011;43754;56.992;24.292;2022-12-29T00:25:42;36.00;;;22.10;;
57947;SDS011;43754;56.992;24.292;2022-12-29T00:31:22;37.95;;;23.95;;
57947;SDS011;43754;56.992;24.292;2022-12-29T00:34:13;40.10;;;25.10;;
57947;SDS011;43754;56.992;24.292;2022-12-29T00:37:04;36.08;;;22.00;;
57947;SDS011;43754;56.992;24.292;2022-12-29T00:39:39;31.83;;;20.15;;
57947;SDS011;43754;56.992;24.292;2022-12-29T00:42:30;34.22;;;19.75;;
57947;SDS011;43754;56.992;24.292;2022-12-29T00:45:34;38.00;;;23.30;;
57947;SDS011;43754;56.992;24.292;2022-12-29T00:48:06;30.00;;;19.33;;
57947;SDS011;43754;56.992;24.292;2022-12-29T00:50:38;28.63;;;18.83;;
57947;SDS011;43754;56.992;24.292;2022-12-29T00:53:10;25.38;;;16.92;;
57947;SDS011;43754;56.992;24.292;2022-12-29T00:55:43;31.67;;;20.65;;
57947;SDS011;43754;56.992;24.292;2022-12-29T00:58:16;29.42;;;19.58;;
57947;SDS011;43754;56.992;24.292;2022-12-29T01:00:48;28.77;;;18.80;;
57947;SDS011;43754;56.992;24.292;2022-12-29T01:03:20;30.17;;;19.38;;
57947;SDS011;43754;56.992;24.292;2022-12-29T01:05:52;30.73;;;17.92;;
57947;SDS011;43754;56.992;24.292;2022-12-29T01:08:24;33.10;;;18.98;;
57947;SDS011;43754;56.992;24.292;2022-12-29T01:11:00;29.77;;;19.77;;
57947;SDS011;43754;56.992;24.292;2022-12-29T01:13:33;32.75;;;21.70;;
57947;SDS011;43754;56.992;24.292;2022-12-29T01:16:06;30.05;;;19.08;;
57947;SDS011;43754;56.992;24.292;2022-12-29T01:18:38;26.58;;;18.67;;
57947;SDS011;43754;56.992;24.292;2022-12-29T01:21:10;29.45;;;18.50;;
57947;SDS011;43754;56.992;24.292;2022-12-29T01:23:44;34.25;;;22.65;;
57947;SDS011;43754;56.992;24.292;2022-12-29T01:26:17;29.73;;;19.15;;
57947;SDS011;43754;56.992;24.292;2022-12-29T01:28:50;29.70;;;17.88;;
57947;SDS011;43754;56.992;24.292;2022-12-29T01:31:22;27.50;;;17.38;;
57947;SDS011;43754;56.992;24.292;2022-12-29T01:33:54;37.13;;;21.75;;
57947;SDS011;43754;56.992;24.292;2022-12-29T01:36:26;31.90;;;18.95;;
57947;SDS011;43754;56.992;24.292;2022-12-29T01:38:58;32.80;;;20.77;;
57947;SDS011;43754;56.992;24.292;2022-12-29T01:41:31;32.53;;;20.80;;
57947;SDS011;43754;56.992;24.292;2022-12-29T01:47:10;34.28;;;21.20;;
57947;SDS011;43754;56.992;24.292;2022-12-29T01:49:42;36.40;;;21.35;;
57947;SDS011;43754;56.992;24.292;2022-12-29T01:52:14;32.80;;;20.23;;
57947;SDS011;43754;56.992;24.292;2022-12-29T01:54:47;32.60;;;21.33;;
57947;SDS011;43754;56.992;24.292;2022-12-29T01:57:27;33.15;;;20.10;;
57947;SDS011;43754;56.992;24.292;2022-12-29T02:00:05;32.50;;;19.40;;
57947;SDS011;43754;56.992;24.292;2022-12-29T02:02:46;35.28;;;20.83;;
57947;SDS011;43754;56.992;24.292;2022-12-29T02:05:25;32.03;;;19.33;;
57947;SDS011;43754;56.992;24.292;2022-12-29T02:08:00;27.35;;;18.10;;
57947;SDS011;43754;56.992;24.292;2022-12-29T02:10:33;32.15;;;18.65;;
57947;SDS011;43754;56.992;24.292;2022-12-29T02:13:08;34.03;;;20.45;;
57947;SDS011;43754;56.992;24.292;2022-12-29T02:15:42;36.15;;;21.77;;
57947;SDS011;43754;56.992;24.292;2022-12-29T02:18:28;33.40;;;20.77;;
57947;SDS011;43754;56.992;24.292;2022-12-29T02:21:19;40.85;;;19.65;;
57947;SDS011;43754;56.992;24.292;2022-12-29T02:24:12;34.22;;;19.23;;
57947;SDS011;43754;56.992;24.292;2022-12-29T02:33:07;27.70;;;16.25;;
57947;SDS011;43754;56.992;24.292;2022-12-29T02:35:47;38.08;;;19.80;;
57947;SDS011;43754;56.992;24.292;2022-12-29T02:38:28;34.53;;;19.80;;
57947;SDS011;43754;56.992;24.292;2022-12-29T02:41:12;36.03;;;21.38;;
57947;SDS011;43754;56.992;24.292;2022-12-29T02:43:53;36.13;;;19.77;;
57947;SDS011;43754;56.992;24.292;2022-12-29T02:46:34;30.05;;;18.23;;
57947;SDS011;43754;56.992;24.292;2022-12-29T02:49:11;36.65;;;19.60;;
57947;SDS011;43754;56.992;24.292;2022-12-29T02:51:50;43.15;;;21.30;;
57947;SDS011;43754;56.992;24.292;2022-12-29T02:54:27;34.40;;;19.52;;
57947;SDS011;43754;56.992;24.292;2022-12-29T02:57:15;46.42;;;22.17;;
57947;SDS011;43754;56.992;24.292;2022-12-29T03:00:01;34.95;;;20.65;;
57947;SDS011;43754;56.992;24.292;2022-12-29T03:02:50;45.45;;;22.27;;
57947;SDS011;43754;56.992;24.292;2022-12-29T03:05:42;44.33;;;21.52;;
57947;SDS011;43754;56.992;24.292;2022-12-29T03:08:31;31.33;;;17.55;;
57947;SDS011;43754;56.992;24.292;2022-12-29T03:11:11;43.50;;;20.35;;
57947;SDS011;43754;56.992;24.292;2022-12-29T03:14:05;37.17;;;19.63;;
57947;SDS011;43754;56.992;24.292;2022-12-29T03:17:02;41.63;;;21.13;;
57947;SDS011;43754;56.992;24.292;2022-12-29T03:19:44;37.83;;;21.08;;
57947;SDS011;43754;56.992;24.292;2022-12-29T03:22:22;35.90;;;18.83;;
57947;SDS011;43754;56.992;24.292;2022-12-29T03:25:10;33.70;;;18.98;;
57947;SDS011;43754;56.992;24.292;2022-12-29T03:27:50;49.08;;;23.17;;
57947;SDS011;43754;56.992;24.292;2022-12-29T03:30:26;34.65;;;19.85;;
57947;SDS011;43754;56.992;24.292;2022-12-29T03:33:03;37.38;;;19.42;;
57947;SDS011;43754;56.992;24.292;2022-12-29T03:35:41;34.80;;;18.70;;
57947;SDS011;43754;56.992;24.292;2022-12-29T03:38:18;45.10;;;22.33;;
57947;SDS011;43754;56.992;24.292;2022-12-29T03:40:54;30.75;;;17.75;;
57947;SDS011;43754;56.992;24.292;2022-12-29T03:43:34;35.00;;;18.40;;
57947;SDS011;43754;56.992;24.292;2022-12-29T03:46:06;31.63;;;17.90;;
57947;SDS011;43754;56.992;24.292;2022-12-29T03:48:39;36.65;;;19.35;;
57947;SDS011;43754;56.992;24.292;2022-12-29T03:51:13;33.15;;;18.42;;
57947;SDS011;43754;56.992;24.292;2022-12-29T03:53:45;35.40;;;18.75;;
57947;SDS011;43754;56.992;24.292;2022-12-29T03:56:18;33.10;;;16.65;;
57947;SDS011;43754;56.992;24.292;2022-12-29T03:58:51;39.17;;;19.67;;
57947;SDS011;43754;56.992;24.292;2022-12-29T04:01:41;43.58;;;19.98;;
57947;SDS011;43754;56.992;24.292;2022-12-29T04:04:14;33.50;;;17.02;;
57947;SDS011;43754;56.992;24.292;2022-12-29T04:06:49;39.53;;;19.40;;
57947;SDS011;43754;56.992;24.292;2022-12-29T04:09:21;32.58;;;17.50;;
57947;SDS011;43754;56.992;24.292;2022-12-29T04:11:54;33.40;;;18.02;;
57947;SDS011;43754;56.992;24.292;2022-12-29T04:14:26;32.35;;;18.20;;
57947;SDS011;43754;56.992;24.292;2022-12-29T04:17:00;28.23;;;16.67;;
57947;SDS011;43754;56.992;24.292;2022-12-29T04:19:33;34.75;;;18.17;;
57947;SDS011;43754;56.992;24.292;2022-12-29T04:22:06;28.48;;;15.77;;
57947;SDS011;43754;56.992;24.292;2022-12-29T04:24:39;35.13;;;18.33;;
57947;SDS011;43754;56.992;24.292;2022-12-29T04:27:14;34.80;;;18.13;;
57947;SDS011;43754;56.992;24.292;2022-12-29T04:30:08;29.38;;;16.58;;
57947;SDS011;43754;56.992;24.292;2022-12-29T04:32:53;37.10;;;18.60;;
57947;SDS011;43754;56.992;24.292;2022-12-29T04:35:25;29.40;;;15.98;;
57947;SDS011;43754;56.992;24.292;2022-12-29T04:37:59;27.33;;;15.40;;
57947;SDS011;43754;56.992;24.292;2022-12-29T04:40:31;29.33;;;17.15;;
57947;SDS011;43754;56.992;24.292;2022-12-29T04:43:04;32.17;;;16.33;;
57947;SDS011;43754;56.992;24.292;2022-12-29T04:45:42;24.63;;;14.70;;
57947;SDS011;43754;56.992;24.292;2022-12-29T04:48:28;24.60;;;14.18;;
57947;SDS011;43754;56.992;24.292;2022-12-29T04:51:20;26.40;;;14.88;;
57947;SDS011;43754;56.992;24.292;2022-12-29T04:53:55;28.15;;;15.23;;
57947;SDS011;43754;56.992;24.292;2022-12-29T04:56:28;26.63;;;15.35;;
57947;SDS011;43754;56.992;24.292;2022-12-29T04:59:01;22.38;;;12.82;;
57947;SDS011;43754;56.992;24.292;2022-12-29T05:01:33;27.10;;;14.65;;
57947;SDS011;43754;56.992;24.292;2022-12-29T05:04:06;26.35;;;13.85;;
57947;SDS011;43754;56.992;24.292;2022-12-29T05:06:38;24.48;;;14.85;;
57947;SDS011;43754;56.992;24.292;2022-12-29T05:09:12;23.38;;;14.20;;
57947;SDS011;43754;56.992;24.292;2022-12-29T05:11:44;27.63;;;15.93;;
57947;SDS011;43754;56.992;24.292;2022-12-29T05:14:17;27.13;;;14.90;;
57947;SDS011;43754;56.992;24.292;2022-12-29T05:16:49;27.45;;;15.18;;
57947;SDS011;43754;56.992;24.292;2022-12-29T05:19:21;27.73;;;14.40;;
57947;SDS011;43754;56.992;24.292;2022-12-29T05:21:53;26.38;;;14.50;;
57947;SDS011;43754;56.992;24.292;2022-12-29T05:24:28;24.20;;;13.40;;
57947;SDS011;43754;56.992;24.292;2022-12-29T05:27:01;26.30;;;14.73;;
57947;SDS011;43754;56.992;24.292;2022-12-29T05:29:56;22.10;;;13.00;;
57947;SDS011;43754;56.992;24.292;2022-12-29T05:32:29;23.20;;;13.68;;
57947;SDS011;43754;56.992;24.292;2022-12-29T05:35:01;29.55;;;14.27;;
57947;SDS011;43754;56.992;24.292;2022-12-29T05:37:35;22.55;;;13.43;;
57947;SDS011;43754;56.992;24.292;2022-12-29T05:40:09;19.83;;;12.20;;
57947;SDS011;43754;56.992;24.292;2022-12-29T05:42:43;23.33;;;12.63;;
57947;SDS011;43754;56.992;24.292;2022-12-29T05:45:23;21.50;;;12.57;;
57947;SDS011;43754;56.992;24.292;2022-12-29T05:48:18;24.95;;;14.07;;
57947;SDS011;43754;56.992;24.292;2022-12-29T05:51:08;28.27;;;14.00;;
57947;SDS011;43754;56.992;24.292;2022-12-29T05:53:51;21.42;;;13.18;;
57947;SDS011;43754;56.992;24.292;2022-12-29T05:56:25;20.52;;;12.20;;
57947;SDS011;43754;56.992;24.292;2022-12-29T05:59:01;27.17;;;17.10;;
57947;SDS011;43754;56.992;24.292;2022-12-29T06:01:33;26.20;;;15.32;;
57947;SDS011;43754;56.992;24.292;2022-12-29T06:04:06;23.77;;;14.82;;
57947;SDS011;43754;56.992;24.292;2022-12-29T06:06:39;24.60;;;14.27;;
57947;SDS011;43754;56.992;24.292;2022-12-29T06:09:18;22.58;;;13.32;;
57947;SDS011;43754;56.992;24.292;2022-12-29T06:11:52;23.67;;;15.80;;
57947;SDS011;43754;56.992;24.292;2022-12-29T06:14:24;25.75;;;15.27;;
57947;SDS011;43754;56.992;24.292;2022-12-29T06:16:56;29.75;;;18.13;;
57947;SDS011;43754;56.992;24.292;2022-12-29T06:19:28;27.05;;;14.93;;
57947;SDS011;43754;56.992;24.292;2022-12-29T06:22:00;23.45;;;14.80;;
57947;SDS011;43754;56.992;24.292;2022-12-29T06:24:36;28.50;;;15.82;;
57947;SDS011;43754;56.992;24.292;2022-12-29T06:27:09;22.10;;;13.65;;
57947;SDS011;43754;56.992;24.292;2022-12-29T06:29:42;28.15;;;15.48;;
57947;SDS011;43754;56.992;24.292;2022-12-29T06:32:14;24.77;;;13.15;;
57947;SDS011;43754;56.992;24.292;2022-12-29T06:34:51;35.05;;;18.38;;
57947;SDS011;43754;56.992;24.292;2022-12-29T06:37:23;31.15;;;17.67;;
57947;SDS011;43754;56.992;24.292;2022-12-29T06:39:55;27.52;;;14.40;;
57947;SDS011;43754;56.992;24.292;2022-12-29T06:42:33;34.10;;;15.02;;
57947;SDS011;43754;56.992;24.292;2022-12-29T06:45:38;32.05;;;16.92;;
57947;SDS011;43754;56.992;24.292;2022-12-29T06:48:11;36.20;;;17.70;;
57947;SDS011;43754;56.992;24.292;2022-12-29T06:50:43;39.30;;;21.42;;
57947;SDS011;43754;56.992;24.292;2022-12-29T06:53:15;47.75;;;22.45;;
57947;SDS011;43754;56.992;24.292;2022-12-29T06:55:47;34.80;;;16.50;;
57947;SDS011;43754;56.992;24.292;2022-12-29T06:58:20;37.05;;;17.52;;
57947;SDS011;43754;56.992;24.292;2022-12-29T07:00:52;43.08;;;17.35;;
57947;SDS011;43754;56.992;24.292;2022-12-29T07:03:25;43.15;;;21.65;;
57947;SDS011;43754;56.992;24.292;2022-12-29T07:05:57;52.33;;;23.75;;
57947;SDS011;43754;56.992;24.292;2022-12-29T07:08:29;67.47;;;28.20;;
57947;SDS011;43754;56.992;24.292;2022-12-29T07:11:01;51.13;;;21.75;;
57947;SDS011;43754;56.992;24.292;2022-12-29T07:13:35;36.72;;;18.13;;
57947;SDS011;43754;56.992;24.292;2022-12-29T07:16:07;55.00;;;22.85;;
57947;SDS011;43754;56.992;24.292;2022-12-29T07:18:40;61.92;;;20.15;;
57947;SDS011;43754;56.992;24.292;2022-12-29T07:21:12;56.58;;;20.10;;
57947;SDS011;43754;56.992;24.292;2022-12-29T07:23:44;34.33;;;16.45;;
57947;SDS011;43754;56.992;24.292;2022-12-29T07:26:16;58.38;;;19.88;;
57947;SDS011;43754;56.992;24.292;2022-12-29T07:28:50;46.67;;;18.80;;
57947;SDS011;43754;56.992;24.292;2022-12-29T07:31:22;128.60;;;31.67;;
57947;SDS011;43754;56.992;24.292;2022-12-29T07:33:55;50.35;;;19.02;;
57947;SDS011;43754;56.992;24.292;2022-12-29T07:36:27;71.95;;;22.70;;
57947;SDS011;43754;56.992;24.292;2022-12-29T07:39:05;50.28;;;22.80;;
57947;SDS011;43754;56.992;24.292;2022-12-29T07:41:37;60.90;;;22.40;;
57947;SDS011;43754;56.992;24.292;2022-12-29T07:44:13;61.30;;;23.67;;
57947;SDS011;43754;56.992;24.292;2022-12-29T07:47:16;59.40;;;24.45;;
57947;SDS011;43754;56.992;24.292;2022-12-29T07:49:48;52.10;;;21.50;;
57947;SDS011;43754;56.992;24.292;2022-12-29T07:52:20;47.00;;;21.10;;
57947;SDS011;43754;56.992;24.292;2022-12-29T07:54:52;50.40;;;21.92;;
57947;SDS011;43754;56.992;24.292;2022-12-29T07:57:24;74.53;;;23.10;;
57947;SDS011;43754;56.992;24.292;2022-12-29T08:00:04;55.15;;;20.95;;
57947;SDS011;43754;56.992;24.292;2022-12-29T08:02:42;65.65;;;23.65;;
57947;SDS011;43754;56.992;24.292;2022-12-29T08:05:14;65.80;;;29.48;;
57947;SDS011;43754;56.992;24.292;2022-12-29T08:07:46;88.72;;;23.35;;
57947;SDS011;43754;56.992;24.292;2022-12-29T08:10:19;43.65;;;18.38;;
57947;SDS011;43754;56.992;24.292;2022-12-29T08:12:51;45.83;;;17.65;;
57947;SDS011;43754;56.992;24.292;2022-12-29T08:15:24;86.05;;;20.88;;
57947;SDS011;43754;56.992;24.292;2022-12-29T08:18:02;72.60;;;21.70;;
57947;SDS011;43754;56.992;24.292;2022-12-29T08:20:35;77.72;;;22.90;;
57947;SDS011;43754;56.992;24.292;2022-12-29T08:23:07;54.67;;;19.75;;
57947;SDS011;43754;56.992;24.292;2022-12-29T08:25:39;49.03;;;17.88;;
57947;SDS011;43754;56.992;24.292;2022-12-29T08:28:11;91.70;;;21.42;;
57947;SDS011;43754;56.992;24.292;2022-12-29T08:30:44;62.03;;;19.08;;
57947;SDS011;43754;56.992;24.292;2022-12-29T08:33:16;51.35;;;18.70;;
57947;SDS011;43754;56.992;24.292;2022-12-29T08:35:48;50.38;;;19.83;;
57947;SDS011;43754;56.992;24.292;2022-12-29T08:38:20;45.70;;;18.23;;
57947;SDS011;43754;56.992;24.292;2022-12-29T08:40:52;57.33;;;19.48;;
57947;SDS011;43754;56.992;24.292;2022-12-29T08:43:24;41.45;;;18.15;;
57947;SDS011;43754;56.992;24.292;2022-12-29T08:45:58;40.30;;;18.58;;
57947;SDS011;43754;56.992;24.292;2022-12-29T08:48:31;43.25;;;18.58;;
57947;SDS011;43754;56.992;24.292;2022-12-29T08:51:03;40.30;;;20.30;;
57947;SDS011;43754;56.992;24.292;2022-12-29T08:53:35;34.30;;;17.50;;
57947;SDS011;43754;56.992;24.292;2022-12-29T08:56:08;47.78;;;19.45;;
57947;SDS011;43754;56.992;24.292;2022-12-29T08:58:49;37.38;;;19.60;;
57947;SDS011;43754;56.992;24.292;2022-12-29T09:01:24;41.95;;;19.58;;
57947;SDS011;43754;56.992;24.292;2022-12-29T09:03:56;36.70;;;18.02;;
57947;SDS011;43754;56.992;24.292;2022-12-29T09:06:48;36.97;;;17.23;;
57947;SDS011;43754;56.992;24.292;2022-12-29T09:09:20;48.58;;;19.13;;
57947;SDS011;43754;56.992;24.292;2022-12-29T09:11:52;39.85;;;18.75;;
57947;SDS011;43754;56.992;24.292;2022-12-29T09:14:24;36.22;;;18.83;;
57947;SDS011;43754;56.992;24.292;2022-12-29T09:16:57;38.05;;;18.98;;
57947;SDS011;43754;56.992;24.292;2022-12-29T09:19:48;35.08;;;16.25;;
57947;SDS011;43754;56.992;24.292;2022-12-29T09:22:20;34.45;;;16.63;;
57947;SDS011;43754;56.992;24.292;2022-12-29T09:24:52;37.97;;;17.80;;
57947;SDS011;43754;56.992;24.292;2022-12-29T09:27:24;43.58;;;19.35;;
57947;SDS011;43754;56.992;24.292;2022-12-29T09:29:57;30.13;;;16.23;;
57947;SDS011;43754;56.992;24.292;2022-12-29T09:32:30;37.50;;;17.58;;
57947;SDS011;43754;56.992;24.292;2022-12-29T09:35:05;36.75;;;19.20;;
57947;SDS011;43754;56.992;24.292;2022-12-29T09:37:37;36.60;;;19.63;;
57947;SDS011;43754;56.992;24.292;2022-12-29T09:40:14;44.55;;;22.10;;
57947;SDS011;43754;56.992;24.292;2022-12-29T09:43:00;34.65;;;18.90;;
57947;SDS011;43754;56.992;24.292;2022-12-29T09:45:42;37.35;;;19.92;;
57947;SDS011;43754;56.992;24.292;2022-12-29T09:48:18;37.08;;;20.27;;
57947;SDS011;43754;56.992;24.292;2022-12-29T09:50:55;34.30;;;18.38;;
57947;SDS011;43754;56.992;24.292;2022-12-29T09:53:30;31.90;;;17.42;;
57947;SDS011;43754;56.992;24.292;2022-12-29T09:56:10;31.83;;;17.73;;
57947;SDS011;43754;56.992;24.292;2022-12-29T09:58:48;22.67;;;13.57;;
57947;SDS011;43754;56.992;24.292;2022-12-29T10:01:26;32.00;;;16.80;;
57947;SDS011;43754;56.992;24.292;2022-12-29T10:04:04;28.98;;;15.23;;
57947;SDS011;43754;56.992;24.292;2022-12-29T10:06:39;27.60;;;15.10;;
57947;SDS011;43754;56.992;24.292;2022-12-29T10:09:38;24.83;;;13.90;;
57947;SDS011;43754;56.992;24.292;2022-12-29T10:12:23;26.10;;;14.85;;
57947;SDS011;43754;56.992;24.292;2022-12-29T10:15:02;23.67;;;14.95;;
57947;SDS011;43754;56.992;24.292;2022-12-29T10:17:44;26.17;;;14.55;;
57947;SDS011;43754;56.992;24.292;2022-12-29T10:20:27;28.55;;;15.30;;
57947;SDS011;43754;56.992;24.292;2022-12-29T10:23:11;24.77;;;14.10;;
57947;SDS011;43754;56.992;24.292;2022-12-29T10:25:53;20.83;;;13.23;;
57947;SDS011;43754;56.992;24.292;2022-12-29T10:28:31;23.23;;;12.52;;
57947;SDS011;43754;56.992;24.292;2022-12-29T10:31:08;27.55;;;16.20;;
57947;SDS011;43754;56.992;24.292;2022-12-29T10:33:45;29.02;;;17.00;;
57947;SDS011;43754;56.992;24.292;2022-12-29T10:36:23;29.58;;;16.15;;
57947;SDS011;43754;56.992;24.292;2022-12-29T10:39:02;23.52;;;14.90;;
57947;SDS011;43754;56.992;24.292;2022-12-29T10:41:46;34.90;;;16.58;;
57947;SDS011;43754;56.992;24.292;2022-12-29T10:44:22;21.52;;;12.70;;
57947;SDS011;43754;56.992;24.292;2022-12-29T10:47:02;21.13;;;13.27;;
57947;SDS011;43754;56.992;24.292;2022-12-29T10:49:39;19.38;;;11.15;;
57947;SDS011;43754;56.992;24.292;2022-12-29T10:52:16;16.52;;;11.93;;
57947;SDS011;43754;56.992;24.292;2022-12-29T10:54:52;25.40;;;16.90;;
57947;SDS011;43754;56.992;24.292;2022-12-29T10:57:28;21.13;;;13.40;;
57947;SDS011;43754;56.992;24.292;2022-12-29T11:00:09;20.15;;;12.00;;
57947;SDS011;43754;56.992;24.292;2022-12-29T11:02:49;25.23;;;18.63;;
57947;SDS011;43754;56.992;24.292;2022-12-29T11:05:41;17.65;;;10.50;;
57947;SDS011;43754;56.992;24.292;2022-12-29T11:08:20;16.95;;;10.32;;
57947;SDS011;43754;56.992;24.292;2022-12-29T11:10:57;19.55;;;11.20;;
57947;SDS011;43754;56.992;24.292;2022-12-29T11:13:32;24.48;;;18.67;;
57947;SDS011;43754;56.992;24.292;2022-12-29T11:16:11;23.67;;;16.10;;
57947;SDS011;43754;56.992;24.292;2022-12-29T11:18:43;16.45;;;11.93;;
57947;SDS011;43754;56.992;24.292;2022-12-29T11:21:24;15.43;;;10.60;;
57947;SDS011;43754;56.992;24.292;2022-12-29T11:24:05;17.73;;;10.32;;
57947;SDS011;43754;56.992;24.292;2022-12-29T11:26:53;14.88;;;10.75;;
57947;SDS011;43754;56.992;24.292;2022-12-29T11:29:29;21.13;;;14.35;;
57947;SDS011;43754;56.992;24.292;2022-12-29T11:34:42;15.85;;;11.02;;
57947;SDS011;43754;56.992;24.292;2022-12-29T11:37:15;20.23;;;13.43;;
57947;SDS011;43754;56.992;24.292;2022-12-29T11:39:51;15.52;;;10.30;;
57947;SDS011;43754;56.992;24.292;2022-12-29T11:42:30;16.80;;;10.98;;
57947;SDS011;43754;56.992;24.292;2022-12-29T11:45:09;20.23;;;11.95;;
57947;SDS011;43754;56.992;24.292;2022-12-29T11:47:48;20.95;;;12.73;;
57947;SDS011;43754;56.992;24.292;2022-12-29T11:50:23;18.77;;;10.88;;
57947;SDS011;43754;56.992;24.292;2022-12-29T11:52:58;22.83;;;12.82;;
57947;SDS011;43754;56.992;24.292;2022-12-29T11:55:34;18.45;;;12.13;;
57947;SDS011;43754;56.992;24.292;2022-12-29T11:58:12;27.33;;;20.88;;
57947;SDS011;43754;56.992;24.292;2022-12-29T12:00:47;18.67;;;11.88;;
57947;SDS011;43754;56.992;24.292;2022-12-29T12:03:22;18.30;;;11.32;;
57947;SDS011;43754;56.992;24.292;2022-12-29T12:06:00;15.30;;;10.30;;
57947;SDS011;43754;56.992;24.292;2022-12-29T12:08:34;21.55;;;15.45;;
57947;SDS011;43754;56.992;24.292;2022-12-29T12:11:12;18.77;;;11.02;;
57947;SDS011;43754;56.992;24.292;2022-12-29T12:13:56;14.32;;;9.98;;
57947;SDS011;43754;56.992;24.292;2022-12-29T12:16:46;24.02;;;14.13;;
57947;SDS011;43754;56.992;24.292;2022-12-29T12:19:24;17.65;;;11.40;;
57947;SDS011;43754;56.992;24.292;2022-12-29T12:22:07;19.30;;;11.90;;
57947;SDS011;43754;56.992;24.292;2022-12-29T12:24:45;21.67;;;11.55;;
57947;SDS011;43754;56.992;24.292;2022-12-29T12:27:22;21.80;;;14.30;;
57947;SDS011;43754;56.992;24.292;2022-12-29T12:30:01;19.73;;;12.20;;
57947;SDS011;43754;56.992;24.292;2022-12-29T12:32:41;19.33;;;12.02;;
57947;SDS011;43754;56.992;24.292;2022-12-29T12:35:21;21.27;;;13.30;;
57947;SDS011;43754;56.992;24.292;2022-12-29T12:38:06;20.80;;;13.98;;
57947;SDS011;43754;56.992;24.292;2022-12-29T12:41:05;19.67;;;12.75;;
57947;SDS011;43754;56.992;24.292;2022-12-29T12:43:49;24.13;;;14.35;;
57947;SDS011;43754;56.992;24.292;2022-12-29T12:46:36;23.80;;;14.73;;
57947;SDS011;43754;56.992;24.292;2022-12-29T12:49:27;25.70;;;15.43;;
57947;SDS011;43754;56.992;24.292;2022-12-29T12:52:13;18.73;;;12.90;;
57947;SDS011;43754;56.992;24.292;2022-12-29T12:55:02;25.67;;;14.25;;
57947;SDS011;43754;56.992;24.292;2022-12-29T12:57:51;29.98;;;18.05;;
57947;SDS011;43754;56.992;24.292;2022-12-29T13:00:33;21.00;;;13.20;;
57947;SDS011;43754;56.992;24.292;2022-12-29T13:03:17;24.08;;;14.95;;
57947;SDS011;43754;56.992;24.292;2022-12-29T13:06:05;22.65;;;15.20;;
57947;SDS011;43754;56.992;24.292;2022-12-29T13:09:02;26.58;;;15.40;;
57947;SDS011;43754;56.992;24.292;2022-12-29T13:11:53;25.25;;;14.63;;
57947;SDS011;43754;56.992;24.292;2022-12-29T13:14:36;17.88;;;12.43;;
57947;SDS011;43754;56.992;24.292;2022-12-29T13:17:23;21.00;;;13.50;;
57947;SDS011;43754;56.992;24.292;2022-12-29T13:20:01;20.65;;;12.27;;
57947;SDS011;43754;56.992;24.292;2022-12-29T13:22:42;17.00;;;12.38;;
57947;SDS011;43754;56.992;24.292;2022-12-29T13:25:22;20.73;;;13.15;;
57947;SDS011;43754;56.992;24.292;2022-12-29T13:28:01;17.17;;;12.05;;
57947;SDS011;43754;56.992;24.292;2022-12-29T13:30:42;23.42;;;14.68;;
57947;SDS011;43754;56.992;24.292;2022-12-29T13:33:23;21.05;;;13.32;;
57947;SDS011;43754;56.992;24.292;2022-12-29T13:38:36;21.60;;;14.13;;
57947;SDS011;43754;56.992;24.292;2022-12-29T13:41:11;24.35;;;16.83;;
57947;SDS011;43754;56.992;24.292;2022-12-29T13:43:46;26.38;;;16.70;;
57947;SDS011;43754;56.992;24.292;2022-12-29T13:46:21;27.83;;;16.10;;
57947;SDS011;43754;56.992;24.292;2022-12-29T13:48:59;24.33;;;15.43;;
57947;SDS011;43754;56.992;24.292;2022-12-29T13:51:35;21.77;;;13.70;;
57947;SDS011;43754;56.992;24.292;2022-12-29T13:54:15;22.55;;;14.68;;
57947;SDS011;43754;56.992;24.292;2022-12-29T13:56:59;27.63;;;15.40;;
57947;SDS011;43754;56.992;24.292;2022-12-29T13:59:42;20.15;;;13.13;;
57947;SDS011;43754;56.992;24.292;2022-12-29T14:02:25;23.63;;;14.63;;
57947;SDS011;43754;56.992;24.292;2022-12-29T14:05:28;25.90;;;15.10;;
57947;SDS011;43754;56.992;24.292;2022-12-29T14:08:03;22.08;;;13.77;;
57947;SDS011;43754;56.992;24.292;2022-12-29T14:10:37;27.98;;;18.27;;
57947;SDS011;43754;56.992;24.292;2022-12-29T14:13:17;31.40;;;17.15;;
57947;SDS011;43754;56.992;24.292;2022-12-29T14:15:52;26.15;;;15.60;;
57947;SDS011;43754;56.992;24.292;2022-12-29T14:18:29;23.73;;;14.60;;
57947;SDS011;43754;56.992;24.292;2022-12-29T14:21:07;22.00;;;13.70;;
57947;SDS011;43754;56.992;24.292;2022-12-29T14:23:49;32.15;;;16.95;;
57947;SDS011;43754;56.992;24.292;2022-12-29T14:29:15;28.55;;;15.48;;
57947;SDS011;43754;56.992;24.292;2022-12-29T14:38:24;32.90;;;16.95;;
57947;SDS011;43754;56.992;24.292;2022-12-29T14:44:01;37.25;;;17.85;;
57947;SDS011;43754;56.992;24.292;2022-12-29T14:46:54;61.20;;;23.98;;
57947;SDS011;43754;56.992;24.292;2022-12-29T14:49:29;78.22;;;24.63;;
57947;SDS011;43754;56.992;24.292;2022-12-29T14:52:05;37.63;;;19.55;;
57947;SDS011;43754;56.992;24.292;2022-12-29T14:54:46;47.58;;;20.67;;
57947;SDS011;43754;56.992;24.292;2022-12-29T14:57:34;113.50;;;27.17;;
57947;SDS011;43754;56.992;24.292;2022-12-29T15:00:16;73.57;;;25.77;;
57947;SDS011;43754;56.992;24.292;2022-12-29T15:02:53;48.83;;;20.40;;
57947;SDS011;43754;56.992;24.292;2022-12-29T15:05:35;46.40;;;21.83;;
57947;SDS011;43754;56.992;24.292;2022-12-29T15:08:12;65.20;;;29.70;;
57947;SDS011;43754;56.992;24.292;2022-12-29T15:10:51;52.05;;;25.52;;
57947;SDS011;43754;56.992;24.292;2022-12-29T15:13:32;50.22;;;22.00;;
57947;SDS011;43754;56.992;24.292;2022-12-29T15:16:17;45.95;;;22.10;;
57947;SDS011;43754;56.992;24.292;2022-12-29T15:18:54;45.28;;;22.88;;
57947;SDS011;43754;56.992;24.292;2022-12-29T15:21:27;59.22;;;25.20;;
57947;SDS011;43754;56.992;24.292;2022-12-29T15:24:01;41.92;;;21.83;;
57947;SDS011;43754;56.992;24.292;2022-12-29T15:26:40;49.20;;;24.33;;
57947;SDS011;43754;56.992;24.292;2022-12-29T15:29:28;38.45;;;21.48;;
57947;SDS011;43754;56.992;24.292;2022-12-29T15:32:14;52.58;;;25.90;;
57947;SDS011;43754;56.992;24.292;2022-12-29T15:34:50;38.50;;;21.80;;
57947;SDS011;43754;56.992;24.292;2022-12-29T15:37:24;45.28;;;22.98;;
57947;SDS011;43754;56.992;24.292;2022-12-29T15:39:56;37.28;;;18.83;;